Delimično oblačno sa cirusima
Potpuno oblačno
Potpuno oblačno
Potpuno oblačno
Potpuno oblačno
Potpuno oblačno
Potpuno oblačno
(°C)
(°C)
JZ
JZ
JZ
JZ
JZ
JZ
JZ
(km/h)
8-33
8-33
7-31
7-29
7-30
7-30
7-29
(mm)
0
0
0
0
0
0
0
(%)
0
0
0
0
8
8
26

Podizanje Sunca

/ 8.4°
sun-icon
UV 1
07:49
17:45
Opadajući mesec (191°)
18:54
08:29

METAR za Spjelkavik (ENAL)

Vreme Uslovi Temperatura/
Tačka rose
Vetar Vidljivost Vreme Oblaci Pritisak Promena Neobrađeno
VFR 6°C / -1°C 220º 13kt 9700m - Few Clouds 4000ft
Scattered Clouds 6000ft
997 - ENAL 251420Z 22013KT 9999 FEW040 SCT060 06/M01 Q0997
VFR 6°C / 0°C 210º 14kt 9700m - Scattered Clouds 4000ft 997 - ENAL 251350Z 21014KT 9999 SCT040 06/M00 Q0997
VFR 7°C / -1°C 210º 12kt 9700m - Scattered Clouds 4000ft 997 - ENAL 251320Z 21012KT 9999 SCT040 07/M01 Q0997
VFR 7°C / 0°C 220º 16kt 9700m - Scattered Clouds 4000ft 997 - ENAL 251250Z 22016KT 9999 SCT040 07/M00 Q0997
VFR 7°C / 0°C 200º 14kt 9700m - Few Clouds 4000ft 996 - ENAL 251220Z 20014KT 9999 FEW040 07/M00 Q0996
VFR 6°C / -1°C 210º 13kt 9700m - Few Clouds 4000ft 996 - ENAL 251150Z 21013KT 9999 FEW040 06/M01 Q0996
VFR 6°C / -1°C 210º 14kt 9700m - Few Clouds 4000ft 996 - ENAL 251120Z 21014KT 9999 FEW040 06/M01 Q0996
VFR 6°C / -1°C 200º 13kt 9700m - Few Clouds 4000ft 996 - ENAL 251050Z 20013KT 9999 FEW040 06/M01 Q0996
VFR 6°C / -2°C 200º 13kt 9700m - Few Clouds 4000ft 995 - ENAL 251020Z 20013KT 9999 FEW040 06/M02 Q0995
VFR 6°C / -1°C 210º 12kt 9700m - Clouds and Visibility OK 995 - ENAL 250950Z 21012KT CAVOK 06/M01 Q0995
VFR 6°C / -1°C 200º variable 170º to 230º 11kt 9700m - Clouds and Visibility OK 995 - ENAL 250920Z 20011KT 170V230 CAVOK 06/M01 Q0995
VFR 5°C / -1°C 200º 13kt 9700m - Clouds and Visibility OK 995 - ENAL 250850Z 20013KT CAVOK 05/M01 Q0995
VFR 5°C / -1°C 190º 12kt 9700m - Clouds and Visibility OK 994 - ENAL 250750Z 19012KT CAVOK 05/M01 Q0994
VFR 5°C / -1°C 200º 9kt 9700m - Clouds and Visibility OK 994 - ENAL 250720Z 20009KT CAVOK 05/M01 Q0994
VFR 5°C / -1°C 200º 11kt 9700m - Clouds and Visibility OK 994 - ENAL 250650Z 20011KT CAVOK 05/M01 Q0994
VFR 4°C / -1°C 190º 10kt 9700m - Clouds and Visibility OK 993 - ENAL 250620Z 19010KT CAVOK 04/M01 Q0993
VFR 5°C / -1°C 190º 10kt 9700m - Clear 993 - ENAL 250550Z AUTO 19010KT 9999 NCD 05/M01 Q0993
VFR 5°C / -1°C 190º 13kt 9700m - Clear 993 - ENAL 250520Z AUTO 19013KT 9999 NCD 05/M01 Q0993
VFR 5°C / -1°C 190º 12kt 9700m - Few Clouds 4300ft 993 - ENAL 250450Z AUTO 19012KT 9999 FEW043/// 05/M01 Q0993
VFR 5°C / -1°C 190º 12kt 9700m - Few Clouds 3400ft
Scattered Clouds 4700ft
993 - ENAL 250420Z AUTO 19012KT 9999 FEW034/// SCT047/// 05/M01 Q0993
VFR 4°C / 0°C 200º 11kt 9700m - Few Clouds 3500ft
Scattered Clouds 4800ft
993 - ENAL 250350Z AUTO 20011KT 9999 FEW035/// SCT048/// 04/M00 Q0993
VFR 5°C / 0°C 190º 13kt 9700m - Few Clouds 4600ft 993 - ENAL 250320Z AUTO 19013KT 9999 FEW046/// 05/M00 Q0993
VFR 5°C / 0°C 190º 12kt 9700m - Scattered Clouds 4800ft 993 - ENAL 250250Z AUTO 19012KT 9999 SCT048/// 05/M00 Q0993
VFR 5°C / 0°C 180º 10kt 9700m - Clear 993 - ENAL 250220Z AUTO 18010KT 9999 NCD 05/M00 Q0993

VFR

6°C / -1°C

[Više]
Vetar 220º 13kt
Vidljivost 9700m
Vreme -
Oblaci Few Clouds 4000ft
Scattered Clouds 6000ft
Pritisak 997
Promena -
Neobrađeno ENAL 251420Z 22013KT 9999 FEW040 SCT060 06/M01 Q0997

VFR

6°C / 0°C

[Više]
Vetar 210º 14kt
Vidljivost 9700m
Vreme -
Oblaci Scattered Clouds 4000ft
Pritisak 997
Promena -
Neobrađeno ENAL 251350Z 21014KT 9999 SCT040 06/M00 Q0997

VFR

7°C / -1°C

[Više]
Vetar 210º 12kt
Vidljivost 9700m
Vreme -
Oblaci Scattered Clouds 4000ft
Pritisak 997
Promena -
Neobrađeno ENAL 251320Z 21012KT 9999 SCT040 07/M01 Q0997

VFR

7°C / 0°C

[Više]
Vetar 220º 16kt
Vidljivost 9700m
Vreme -
Oblaci Scattered Clouds 4000ft
Pritisak 997
Promena -
Neobrađeno ENAL 251250Z 22016KT 9999 SCT040 07/M00 Q0997

VFR

7°C / 0°C

[Više]
Vetar 200º 14kt
Vidljivost 9700m
Vreme -
Oblaci Few Clouds 4000ft
Pritisak 996
Promena -
Neobrađeno ENAL 251220Z 20014KT 9999 FEW040 07/M00 Q0996

VFR

6°C / -1°C

[Više]
Vetar 210º 13kt
Vidljivost 9700m
Vreme -
Oblaci Few Clouds 4000ft
Pritisak 996
Promena -
Neobrađeno ENAL 251150Z 21013KT 9999 FEW040 06/M01 Q0996

VFR

6°C / -1°C

[Više]
Vetar 210º 14kt
Vidljivost 9700m
Vreme -
Oblaci Few Clouds 4000ft
Pritisak 996
Promena -
Neobrađeno ENAL 251120Z 21014KT 9999 FEW040 06/M01 Q0996

VFR

6°C / -1°C

[Više]
Vetar 200º 13kt
Vidljivost 9700m
Vreme -
Oblaci Few Clouds 4000ft
Pritisak 996
Promena -
Neobrađeno ENAL 251050Z 20013KT 9999 FEW040 06/M01 Q0996

VFR

6°C / -2°C

[Više]
Vetar 200º 13kt
Vidljivost 9700m
Vreme -
Oblaci Few Clouds 4000ft
Pritisak 995
Promena -
Neobrađeno ENAL 251020Z 20013KT 9999 FEW040 06/M02 Q0995

VFR

6°C / -1°C

[Više]
Vetar 210º 12kt
Vidljivost 9700m
Vreme -
Oblaci Clouds and Visibility OK
Pritisak 995
Promena -
Neobrađeno ENAL 250950Z 21012KT CAVOK 06/M01 Q0995

VFR

6°C / -1°C

[Više]
Vetar 200º variable 170º to 230º 11kt
Vidljivost 9700m
Vreme -
Oblaci Clouds and Visibility OK
Pritisak 995
Promena -
Neobrađeno ENAL 250920Z 20011KT 170V230 CAVOK 06/M01 Q0995

VFR

5°C / -1°C

[Više]
Vetar 200º 13kt
Vidljivost 9700m
Vreme -
Oblaci Clouds and Visibility OK
Pritisak 995
Promena -
Neobrađeno ENAL 250850Z 20013KT CAVOK 05/M01 Q0995

VFR

5°C / -1°C

[Više]
Vetar 190º 12kt
Vidljivost 9700m
Vreme -
Oblaci Clouds and Visibility OK
Pritisak 994
Promena -
Neobrađeno ENAL 250750Z 19012KT CAVOK 05/M01 Q0994

VFR

5°C / -1°C

[Više]
Vetar 200º 9kt
Vidljivost 9700m
Vreme -
Oblaci Clouds and Visibility OK
Pritisak 994
Promena -
Neobrađeno ENAL 250720Z 20009KT CAVOK 05/M01 Q0994

VFR

5°C / -1°C

[Više]
Vetar 200º 11kt
Vidljivost 9700m
Vreme -
Oblaci Clouds and Visibility OK
Pritisak 994
Promena -
Neobrađeno ENAL 250650Z 20011KT CAVOK 05/M01 Q0994

VFR

4°C / -1°C

[Više]
Vetar 190º 10kt
Vidljivost 9700m
Vreme -
Oblaci Clouds and Visibility OK
Pritisak 993
Promena -
Neobrađeno ENAL 250620Z 19010KT CAVOK 04/M01 Q0993

VFR

5°C / -1°C

[Više]
Vetar 190º 10kt
Vidljivost 9700m
Vreme -
Oblaci Clear
Pritisak 993
Promena -
Neobrađeno ENAL 250550Z AUTO 19010KT 9999 NCD 05/M01 Q0993

VFR

5°C / -1°C

[Više]
Vetar 190º 13kt
Vidljivost 9700m
Vreme -
Oblaci Clear
Pritisak 993
Promena -
Neobrađeno ENAL 250520Z AUTO 19013KT 9999 NCD 05/M01 Q0993

VFR

5°C / -1°C

[Više]
Vetar 190º 12kt
Vidljivost 9700m
Vreme -
Oblaci Few Clouds 4300ft
Pritisak 993
Promena -
Neobrađeno ENAL 250450Z AUTO 19012KT 9999 FEW043/// 05/M01 Q0993

VFR

5°C / -1°C

[Više]
Vetar 190º 12kt
Vidljivost 9700m
Vreme -
Oblaci Few Clouds 3400ft
Scattered Clouds 4700ft
Pritisak 993
Promena -
Neobrađeno ENAL 250420Z AUTO 19012KT 9999 FEW034/// SCT047/// 05/M01 Q0993

VFR

4°C / 0°C

[Više]
Vetar 200º 11kt
Vidljivost 9700m
Vreme -
Oblaci Few Clouds 3500ft
Scattered Clouds 4800ft
Pritisak 993
Promena -
Neobrađeno ENAL 250350Z AUTO 20011KT 9999 FEW035/// SCT048/// 04/M00 Q0993

VFR

5°C / 0°C

[Više]
Vetar 190º 13kt
Vidljivost 9700m
Vreme -
Oblaci Few Clouds 4600ft
Pritisak 993
Promena -
Neobrađeno ENAL 250320Z AUTO 19013KT 9999 FEW046/// 05/M00 Q0993

VFR

5°C / 0°C

[Više]
Vetar 190º 12kt
Vidljivost 9700m
Vreme -
Oblaci Scattered Clouds 4800ft
Pritisak 993
Promena -
Neobrađeno ENAL 250250Z AUTO 19012KT 9999 SCT048/// 05/M00 Q0993

VFR

5°C / 0°C

[Više]
Vetar 180º 10kt
Vidljivost 9700m
Vreme -
Oblaci Clear
Pritisak 993
Promena -
Neobrađeno ENAL 250220Z AUTO 18010KT 9999 NCD 05/M00 Q0993

TAF za Spjelkavik (ENAL)

From till


From till Wind 210º 15kt. Visibility 9700m. Few Clouds 2000ft. Broken Clouds 4000ft.
Temporarly from till Wind 210º 18kt. Gust 28kt.
Temporarly from till Showers Rain . Broken Clouds 1200ft. Scattered Clouds 1800ft.

Neobrađeno: TAF ENAL 251400Z 2515/2523 21015KT 9999 FEW020 BKN040 TEMPO 2515/2521 21018G28KT TEMPO 2516/2523 SHRA BKN012 SCT018CB

rainNOW: Trenutna prognoza za kišu za Spjelkavik i okolinu (radijus 25 km)

0.0 mm
0.0 mm
0.0 mm
0.0 mm
0.0 mm
0.0 mm
0.0 mm
0.0 mm
0.0 mm
0.0 mm
0.0 mm
0.0 mm

Radar za Spjelkavik

Rominjati
Laka
Umereno
Teška
Vrlo teška
Grad

Marker lokacije postavljen je na Spjelkavik. Narandžasti krstovi označavaju munju. Podatke obezbedio nowcast.de (dostupni u SAD, Evropi, Australiji). Kiša ili slab sneg mogu biti nevidljivi za radar. Intenzitet padavina je označen bojom, u rasponu od tirkizne do crvene.

Trenutni satelitski snimci i slike kiše za Spjelkavik, Норвешка

Marker lokacije postavljen je na Spjelkavik. [Više]

Satelitski snimci u realnom vremenu kombinuju vidljivu svetlost tokom dana sa infracrvenim zračenjem tokom noći. Noću slika nije tamna jer infracrveno zračenje može otkriti temperaturne razlike. Nažalost, niski oblaci i magla teško se mogu razlikovati od temperature zemlje tako da mogu biti skoro nevidljivi tokom noći. Meteosat satelitski snimci za Evropu se ažuriraju u realnom vremenu na svakih 5 minuta. Snimci GOES-16/GOES-17 (Severna i Južna Amerika) i Himavari (Azija) ažuriraju se na svakih 10 minuta.

Padavine se procenjuju pomoću radara i satelita. Procene padavina sa satelita su manje tačne noću nego tokom dana.

© 2024 meteoblue, NOAA Satellites GOES-16 and EUMETSAT. Podaci za munje obezbeđeni od nowcast.

Nazad na vrh
×
Zdravo,
izgleda da koristite blokator oglasa.

Oglašavanje je neophodno za održavanje naše besplatne veb stranice sa jedinstvenim detaljima i tačnošću.

Molimo vas da stavite na belu listu www.meteoblue.com na svom blokatoru oglasa ili razmislite o kupovini nekog od naših proizvoda:

Već imate pretplatu?
Onda se prijavite.